sensor_id;sensor_type;location;lat;lon;timestamp;pressure;altitude;pressure_sealevel;temperature;humidity
46598;BME280;32318;48.858;8.252;2023-04-06T01:22:04;100541.13;;;3.40;56.44
46598;BME280;32318;48.858;8.252;2023-04-06T01:30:05;100535.34;;;3.35;55.67
46598;BME280;32318;48.858;8.252;2023-04-06T01:38:06;100526.91;;;3.29;56.13
46598;BME280;32318;48.858;8.252;2023-04-06T01:46:06;100517.72;;;3.22;56.55
46598;BME280;32318;48.858;8.252;2023-04-06T01:54:06;100515.66;;;3.14;56.35
46598;BME280;32318;48.858;8.252;2023-04-06T02:02:06;100513.75;;;3.04;57.63
46598;BME280;32318;48.858;8.252;2023-04-06T02:10:13;100512.75;;;2.93;57.41
46598;BME280;32318;48.858;8.252;2023-04-06T02:18:14;100506.63;;;2.80;55.51
46598;BME280;32318;48.858;8.252;2023-04-06T02:26:14;100501.38;;;2.67;58.03
46598;BME280;32318;48.858;8.252;2023-04-06T02:34:15;100501.06;;;2.59;57.11
46598;BME280;32318;48.858;8.252;2023-04-06T02:42:17;100501.63;;;2.51;56.20
46598;BME280;32318;48.858;8.252;2023-04-06T02:50:17;100494.84;;;2.47;57.17
46598;BME280;32318;48.858;8.252;2023-04-06T02:58:18;100492.53;;;2.42;57.32
46598;BME280;32318;48.858;8.252;2023-04-06T03:06:18;100498.84;;;2.40;59.46
46598;BME280;32318;48.858;8.252;2023-04-06T03:14:18;100496.97;;;2.42;58.87
46598;BME280;32318;48.858;8.252;2023-04-06T03:22:21;100490.22;;;2.38;58.63
46598;BME280;32318;48.858;8.252;2023-04-06T03:30:22;100487.78;;;2.34;57.31
46598;BME280;32318;48.858;8.252;2023-04-06T03:38:22;100490.41;;;2.34;59.06
46598;BME280;32318;48.858;8.252;2023-04-06T03:46:22;100488.94;;;2.30;57.86
46598;BME280;32318;48.858;8.252;2023-04-06T03:54:22;100494.41;;;2.27;58.39
46598;BME280;32318;48.858;8.252;2023-04-06T04:02:23;100500.94;;;2.22;58.42
46598;BME280;32318;48.858;8.252;2023-04-06T04:10:23;100508.19;;;2.18;57.96
46598;BME280;32318;48.858;8.252;2023-04-06T04:18:23;100514.41;;;2.17;58.88
46598;BME280;32318;48.858;8.252;2023-04-06T04:26:24;100528.56;;;2.16;59.34
46598;BME280;32318;48.858;8.252;2023-04-06T04:34:24;100532.78;;;2.18;59.75
46598;BME280;32318;48.858;8.252;2023-04-06T04:42:25;100533.81;;;2.16;60.84
46598;BME280;32318;48.858;8.252;2023-04-06T04:50:25;100543.47;;;2.02;61.18
46598;BME280;32318;48.858;8.252;2023-04-06T04:58:25;100543.47;;;2.02;61.55
46598;BME280;32318;48.858;8.252;2023-04-06T05:06:26;100553.47;;;1.97;61.43
46598;BME280;32318;48.858;8.252;2023-04-06T05:14:27;100553.69;;;2.07;59.80
46598;BME280;32318;48.858;8.252;2023-04-06T05:22:27;100560.56;;;2.10;61.66
46598;BME280;32318;48.858;8.252;2023-04-06T05:30:27;100573.00;;;2.08;61.82
46598;BME280;32318;48.858;8.252;2023-04-06T05:38:27;100577.44;;;2.20;60.50
46598;BME280;32318;48.858;8.252;2023-04-06T05:46:28;100580.66;;;2.38;60.60
46598;BME280;32318;48.858;8.252;2023-04-06T05:54:28;100583.84;;;3.08;59.38
46598;BME280;32318;48.858;8.252;2023-04-06T06:02:30;100578.53;;;3.71;58.35
46598;BME280;32318;48.858;8.252;2023-04-06T06:10:30;100574.00;;;4.33;55.86
46598;BME280;32318;48.858;8.252;2023-04-06T06:18:31;100579.88;;;4.83;53.83
46598;BME280;32318;48.858;8.252;2023-04-06T06:26:31;100574.59;;;5.06;53.88
46598;BME280;32318;48.858;8.252;2023-04-06T06:34:32;100568.53;;;4.70;54.61
46598;BME280;32318;48.858;8.252;2023-04-06T06:42:32;100567.81;;;4.57;55.21
46598;BME280;32318;48.858;8.252;2023-04-06T06:50:32;100566.03;;;4.68;55.40
46598;BME280;32318;48.858;8.252;2023-04-06T06:58:32;100575.31;;;4.85;55.94
46598;BME280;32318;48.858;8.252;2023-04-06T07:06:33;100580.72;;;4.95;55.74
46598;BME280;32318;48.858;8.252;2023-04-06T07:14:33;100575.69;;;5.03;55.88
46598;BME280;32318;48.858;8.252;2023-04-06T07:22:34;100578.44;;;5.13;55.00
46598;BME280;32318;48.858;8.252;2023-04-06T07:30:34;100573.88;;;5.27;54.54
46598;BME280;32318;48.858;8.252;2023-04-06T07:38:34;100564.78;;;5.63;54.21
46598;BME280;32318;48.858;8.252;2023-04-06T07:46:35;100566.16;;;6.02;54.52
46598;BME280;32318;48.858;8.252;2023-04-06T07:54:36;100576.91;;;6.42;53.04
46598;BME280;32318;48.858;8.252;2023-04-06T08:02:36;100572.47;;;6.64;52.33
46598;BME280;32318;48.858;8.252;2023-04-06T08:10:36;100571.16;;;6.80;51.55
46598;BME280;32318;48.858;8.252;2023-04-06T08:18:36;100567.88;;;6.97;52.21
46598;BME280;32318;48.858;8.252;2023-04-06T08:26:37;100567.00;;;7.18;51.54
46598;BME280;32318;48.858;8.252;2023-04-06T08:34:37;100559.78;;;7.40;50.07
46598;BME280;32318;48.858;8.252;2023-04-06T08:42:40;100553.66;;;7.49;48.74
46598;BME280;32318;48.858;8.252;2023-04-06T08:50:43;100555.81;;;7.75;50.08
46598;BME280;32318;48.858;8.252;2023-04-06T08:58:44;100556.81;;;7.93;49.59
46598;BME280;32318;48.858;8.252;2023-04-06T09:06:45;100554.56;;;8.18;49.50
46598;BME280;32318;48.858;8.252;2023-04-06T09:14:45;100555.69;;;8.35;48.81
46598;BME280;32318;48.858;8.252;2023-04-06T09:22:45;100560.44;;;8.51;49.09
46598;BME280;32318;48.858;8.252;2023-04-06T09:30:49;100553.81;;;8.75;48.50
46598;BME280;32318;48.858;8.252;2023-04-06T09:46:57;100544.53;;;9.17;47.71
46598;BME280;32318;48.858;8.252;2023-04-06T09:55:01;100533.94;;;9.35;48.30
46598;BME280;32318;48.858;8.252;2023-04-06T10:03:33;100540.41;;;9.78;44.47
46598;BME280;32318;48.858;8.252;2023-04-06T10:11:38;100545.88;;;9.95;45.85
46598;BME280;32318;48.858;8.252;2023-04-06T10:19:52;100536.97;;;10.04;42.24
46598;BME280;32318;48.858;8.252;2023-04-06T10:28:02;100534.28;;;10.22;43.25
46598;BME280;32318;48.858;8.252;2023-04-06T10:36:15;100529.84;;;10.49;42.89
46598;BME280;32318;48.858;8.252;2023-04-06T10:44:22;100524.34;;;10.77;42.39
46598;BME280;32318;48.858;8.252;2023-04-06T10:52:23;100517.44;;;11.01;43.45
46598;BME280;32318;48.858;8.252;2023-04-06T11:00:24;100512.34;;;11.16;43.21
46598;BME280;32318;48.858;8.252;2023-04-06T11:08:30;100504.88;;;11.36;43.40
46598;BME280;32318;48.858;8.252;2023-04-06T11:16:31;100497.56;;;11.54;41.75
46598;BME280;32318;48.858;8.252;2023-04-06T11:24:32;100489.91;;;11.68;41.89
46598;BME280;32318;48.858;8.252;2023-04-06T11:32:45;100479.06;;;11.86;39.38
46598;BME280;32318;48.858;8.252;2023-04-06T11:40:46;100464.84;;;12.02;39.69
46598;BME280;32318;48.858;8.252;2023-04-06T11:48:46;100469.06;;;12.13;39.55
46598;BME280;32318;48.858;8.252;2023-04-06T11:56:46;100449.63;;;12.27;40.12
46598;BME280;32318;48.858;8.252;2023-04-06T12:04:47;100455.94;;;12.43;37.61
46598;BME280;32318;48.858;8.252;2023-04-06T12:12:47;100451.19;;;12.61;37.21
46598;BME280;32318;48.858;8.252;2023-04-06T12:20:47;100446.78;;;12.77;38.39
46598;BME280;32318;48.858;8.252;2023-04-06T12:28:48;100427.03;;;12.78;38.36
46598;BME280;32318;48.858;8.252;2023-04-06T12:36:48;100423.59;;;12.92;38.07
46598;BME280;32318;48.858;8.252;2023-04-06T12:44:48;100431.34;;;12.87;33.96
46598;BME280;32318;48.858;8.252;2023-04-06T12:52:48;100406.03;;;12.90;35.90
46598;BME280;32318;48.858;8.252;2023-04-06T13:00:50;100420.06;;;13.00;32.48
46598;BME280;32318;48.858;8.252;2023-04-06T13:08:50;100410.38;;;13.22;34.49
46598;BME280;32318;48.858;8.252;2023-04-06T13:17:20;100404.88;;;13.47;31.74
46598;BME280;32318;48.858;8.252;2023-04-06T13:25:23;100400.47;;;13.54;33.42
46598;BME280;32318;48.858;8.252;2023-04-06T13:33:23;100398.50;;;13.71;33.29
46598;BME280;32318;48.858;8.252;2023-04-06T13:41:25;100401.19;;;13.71;32.68
46598;BME280;32318;48.858;8.252;2023-04-06T13:49:26;100394.31;;;13.69;31.27
46598;BME280;32318;48.858;8.252;2023-04-06T13:57:26;100393.78;;;13.73;32.26
46598;BME280;32318;48.858;8.252;2023-04-06T14:05:31;100389.59;;;13.71;31.30
46598;BME280;32318;48.858;8.252;2023-04-06T14:13:32;100391.19;;;13.80;32.80
46598;BME280;32318;48.858;8.252;2023-04-06T14:21:32;100383.00;;;13.58;32.17
46598;BME280;32318;48.858;8.252;2023-04-06T14:29:32;100382.69;;;13.53;34.60
46598;BME280;32318;48.858;8.252;2023-04-06T14:37:32;100380.28;;;13.43;34.64
46598;BME280;32318;48.858;8.252;2023-04-06T14:45:33;100378.88;;;13.24;33.54
46598;BME280;32318;48.858;8.252;2023-04-06T14:53:34;100378.28;;;13.14;34.73
46598;BME280;32318;48.858;8.252;2023-04-06T15:01:35;100377.53;;;12.97;35.33
46598;BME280;32318;48.858;8.252;2023-04-06T15:09:36;100373.50;;;13.01;35.28
46598;BME280;32318;48.858;8.252;2023-04-06T15:17:37;100370.63;;;13.02;34.91
46598;BME280;32318;48.858;8.252;2023-04-06T15:25:38;100376.88;;;12.95;35.33
46598;BME280;32318;48.858;8.252;2023-04-06T15:33:41;100369.25;;;12.83;35.84
46598;BME280;32318;48.858;8.252;2023-04-06T15:41:41;100367.59;;;12.74;36.25
46598;BME280;32318;48.858;8.252;2023-04-06T15:49:41;100374.50;;;12.68;36.51
46598;BME280;32318;48.858;8.252;2023-04-06T15:57:41;100371.66;;;12.70;37.14
46598;BME280;32318;48.858;8.252;2023-04-06T16:05:44;100365.31;;;12.63;37.85
46598;BME280;32318;48.858;8.252;2023-04-06T16:13:45;100375.06;;;12.55;37.49
46598;BME280;32318;48.858;8.252;2023-04-06T16:21:45;100368.56;;;12.42;37.46
46598;BME280;32318;48.858;8.252;2023-04-06T16:29:46;100377.84;;;12.22;38.16
46598;BME280;32318;48.858;8.252;2023-04-06T16:37:46;100382.06;;;12.08;38.62
46598;BME280;32318;48.858;8.252;2023-04-06T16:45:50;100390.28;;;11.99;39.20
46598;BME280;32318;48.858;8.252;2023-04-06T16:53:51;100386.75;;;11.90;39.78
46598;BME280;32318;48.858;8.252;2023-04-06T17:01:52;100390.78;;;11.77;40.15
46598;BME280;32318;48.858;8.252;2023-04-06T17:09:53;100402.13;;;11.63;41.35
46598;BME280;32318;48.858;8.252;2023-04-06T17:17:54;100395.97;;;11.46;41.61
46598;BME280;32318;48.858;8.252;2023-04-06T17:25:56;100408.81;;;11.34;42.21
46598;BME280;32318;48.858;8.252;2023-04-06T17:33:58;100422.16;;;11.18;43.98
46598;BME280;32318;48.858;8.252;2023-04-06T17:41:58;100406.91;;;11.02;44.34
46598;BME280;32318;48.858;8.252;2023-04-06T17:50:00;100413.72;;;10.88;44.97
46598;BME280;32318;48.858;8.252;2023-04-06T17:58:01;100412.00;;;10.78;45.43
46598;BME280;32318;48.858;8.252;2023-04-06T18:06:12;100425.50;;;10.69;47.60
46598;BME280;32318;48.858;8.252;2023-04-06T18:14:12;100436.63;;;10.56;49.21
46598;BME280;32318;48.858;8.252;2023-04-06T18:22:14;100428.56;;;10.47;49.71
46598;BME280;32318;48.858;8.252;2023-04-06T18:30:15;100436.81;;;10.36;51.11
46598;BME280;32318;48.858;8.252;2023-04-06T18:38:17;100448.13;;;10.30;53.29
46598;BME280;32318;48.858;8.252;2023-04-06T18:46:17;100449.88;;;10.21;52.52
46598;BME280;32318;48.858;8.252;2023-04-06T18:54:21;100456.78;;;10.05;55.21
46598;BME280;32318;48.858;8.252;2023-04-06T19:02:21;100458.88;;;9.94;56.13
46598;BME280;32318;48.858;8.252;2023-04-06T19:10:21;100469.63;;;9.84;58.82
46598;BME280;32318;48.858;8.252;2023-04-06T19:18:22;100477.22;;;9.79;60.68
46598;BME280;32318;48.858;8.252;2023-04-06T19:26:22;100484.47;;;9.68;61.19
46598;BME280;32318;48.858;8.252;2023-04-06T19:34:24;100487.06;;;9.60;62.49
46598;BME280;32318;48.858;8.252;2023-04-06T19:42:25;100477.16;;;9.52;63.92
46598;BME280;32318;48.858;8.252;2023-04-06T19:50:25;100479.06;;;9.42;65.56
46598;BME280;32318;48.858;8.252;2023-04-06T19:58:25;100473.19;;;9.38;63.37
46598;BME280;32318;48.858;8.252;2023-04-06T20:06:28;100471.59;;;9.28;68.04
46598;BME280;32318;48.858;8.252;2023-04-06T20:14:28;100469.94;;;9.17;66.80
46598;BME280;32318;48.858;8.252;2023-04-06T20:22:30;100459.44;;;9.15;66.96
46598;BME280;32318;48.858;8.252;2023-04-06T20:30:30;100442.69;;;9.05;66.11
46598;BME280;32318;48.858;8.252;2023-04-06T20:38:30;100435.19;;;8.90;66.77
46598;BME280;32318;48.858;8.252;2023-04-06T20:46:30;100423.84;;;8.88;67.43
46598;BME280;32318;48.858;8.252;2023-04-06T20:54:31;100416.16;;;8.85;65.84
46598;BME280;32318;48.858;8.252;2023-04-06T21:02:31;100410.44;;;8.80;67.75
46598;BME280;32318;48.858;8.252;2023-04-06T21:10:40;100416.38;;;8.74;69.39
46598;BME280;32318;48.858;8.252;2023-04-06T21:18:40;100390.66;;;8.65;68.78
46598;BME280;32318;48.858;8.252;2023-04-06T21:26:41;100379.31;;;8.62;68.88
46598;BME280;32318;48.858;8.252;2023-04-06T21:34:41;100383.22;;;8.58;69.65
46598;BME280;32318;48.858;8.252;2023-04-06T21:42:44;100389.56;;;8.57;69.31
46598;BME280;32318;48.858;8.252;2023-04-06T21:50:45;100397.38;;;8.59;68.92
46598;BME280;32318;48.858;8.252;2023-04-06T21:58:45;100373.72;;;8.56;65.13
46598;BME280;32318;48.858;8.252;2023-04-06T22:06:45;100358.91;;;8.53;63.95
46598;BME280;32318;48.858;8.252;2023-04-06T22:14:46;100337.47;;;8.45;65.28
46598;BME280;32318;48.858;8.252;2023-04-06T22:22:47;100358.50;;;8.38;65.66
46598;BME280;32318;48.858;8.252;2023-04-06T22:30:47;100353.06;;;8.40;66.31
46598;BME280;32318;48.858;8.252;2023-04-06T22:38:47;100355.84;;;8.38;65.33
46598;BME280;32318;48.858;8.252;2023-04-06T22:46:49;100333.19;;;8.34;65.63
46598;BME280;32318;48.858;8.252;2023-04-06T22:54:50;100336.69;;;8.35;66.36
46598;BME280;32318;48.858;8.252;2023-04-06T23:02:50;100332.22;;;8.35;66.90
46598;BME280;32318;48.858;8.252;2023-04-06T23:10:50;100328.69;;;8.35;67.34
46598;BME280;32318;48.858;8.252;2023-04-06T23:18:50;100338.53;;;8.34;67.08
46598;BME280;32318;48.858;8.252;2023-04-06T23:26:51;100327.03;;;8.33;67.71
46598;BME280;32318;48.858;8.252;2023-04-06T23:34:51;100328.00;;;8.32;68.48
46598;BME280;32318;48.858;8.252;2023-04-06T23:42:51;100311.94;;;8.24;69.25
46598;BME280;32318;48.858;8.252;2023-04-06T23:50:51;100316.59;;;8.22;68.24
46598;BME280;32318;48.858;8.252;2023-04-06T23:58:52;100293.09;;;8.18;70.25
